9  °C
Temperature
4  °C
  Dewpoint
   Humidity
Temp | Dewpoint | Humidity
13  km/h
Wind Speed
8  mph
Wind Speed
7  kts
Wind Speed
270°
Due West

Wind Speed
Partly Cloudy
Conditions
Pressure 995.92 (hPa) - 29.41 (in)
Visibility 6.2 (mi) - 10.0 (km)

Current Conditions
LELN
Location 6km (3.2mi)
Metar :LELN 241500Z 27007KT 240V320 9999 FEW030 BKN040 09/04 Q0996
Wed 24th April 16:00 pm

Airport
  Metar Aviation API Data Provided by https://www.checkwx.com/ CSS/SVG/PHP scripts by weather34.com © 2015-2019